< < Back
Terminal Aerodrome Forecast


Current Version              Previous Versions:   1  2  3  4  5  6  7  8  9  

Terminal Aerodrome Forecast

714
FTUS42 KJAX 181100
TAFSSI
TAF
KSSI 181120Z 1812/1912 31005KT P6SM BKN200
     FM182200 28003KT P6SM FEW080 SCT250=



Latest METAR

872
SAUS70 KWBC 191100 RRF
MTRSSI
METAR KSSI 191053Z AUTO 33003KT 10SM CLR 09/04 A3010 RMK AO2 SLP193
T00890044


USA.gov is the U.S. government's official web portal to all federal, state and local government web resources and services.